Time;durP1;ratioP1;P1;durP2;ratioP2;P2;SDS_P1;SDS_P2;PMS_P1;PMS_P2;Temp;Humidity;BMP_temperature;BMP_pressure;BME280_temperature;BME280_humidity;BME280_pressure;Samples;Min_cycle;Max_cycle;Signal;HPM_P1;HPM_P2
2022/03/23 00:00:46;;;;;;;71.15;34.03;;;3.80;99.90;;;;;;5069057;28;20063;-49
2022/03/23 00:03:15;;;;;;;58.70;33.30;;;3.90;99.90;;;;;;5069304;28;20045;-49
2022/03/23 00:05:42;;;;;;;66.28;35.88;;;3.80;99.90;;;;;;5069030;28;20074;-50
2022/03/23 00:08:10;;;;;;;74.70;37.35;;;3.80;99.90;;;;;;5069176;28;20490;-48
2022/03/23 00:10:36;;;;;;;58.30;30.73;;;3.80;99.90;;;;;;5068904;28;20223;-50
2022/03/23 00:13:03;;;;;;;71.57;38.50;;;3.80;99.90;;;;;;5068601;28;20044;-48
2022/03/23 00:15:30;;;;;;;62.35;35.90;;;4.50;99.90;;;;;;5068962;28;20086;-52
2022/03/23 00:17:57;;;;;;;58.75;29.70;;;3.70;99.90;;;;;;5068840;28;20090;-48
2022/03/23 00:20:23;;;;;;;74.70;38.45;;;3.80;99.90;;;;;;5068807;28;20551;-50
2022/03/23 00:22:48;;;;;;;51.85;28.20;;;2.40;99.90;;;;;;5069453;28;20472;-48
2022/03/23 00:25:14;;;;;;;57.30;30.58;;;3.70;99.90;;;;;;5069901;28;20040;-48
2022/03/23 00:27:40;;;;;;;59.65;30.77;;;3.70;99.90;;;;;;5068823;28;20505;-51
2022/03/23 00:30:08;;;;;;;58.72;30.77;;;3.60;99.90;;;;;;5069395;28;20044;-48
2022/03/23 00:32:34;;;;;;;61.72;32.90;;;3.50;99.90;;;;;;5068129;28;20505;-52
2022/03/23 00:35:00;;;;;;;58.03;31.05;;;3.50;99.90;;;;;;5068976;28;20033;-49
2022/03/23 00:37:25;;;;;;;56.63;33.30;;;3.40;99.90;;;;;;5069116;28;20119;-48
2022/03/23 00:39:51;;;;;;;62.47;34.05;;;3.40;99.90;;;;;;5068990;28;20139;-51
2022/03/23 00:42:17;;;;;;;56.22;30.05;;;3.30;99.90;;;;;;5069244;28;20066;-48
2022/03/23 00:44:43;;;;;;;45.00;23.92;;;3.30;99.90;;;;;;5069054;28;20043;-51
2022/03/23 00:47:09;;;;;;;58.15;29.60;;;3.30;99.90;;;;;;5068912;28;20041;-50
2022/03/23 00:49:36;;;;;;;47.88;26.98;;;3.30;99.90;;;;;;5068453;28;20119;-52
2022/03/23 00:52:05;;;;;;;45.42;24.95;;;3.20;99.90;;;;;;5068538;28;20475;-51
2022/03/23 00:54:34;;;;;;;58.13;28.85;;;3.20;99.90;;;;;;5068891;28;20447;-50
2022/03/23 00:57:03;;;;;;;50.92;28.35;;;3.20;99.90;;;;;;5068950;28;20478;-49
2022/03/23 00:59:29;;;;;;;54.33;28.45;;;3.90;99.90;;;;;;5050552;28;20048;-48
2022/03/23 01:01:55;;;;;;;65.45;32.97;;;3.10;99.90;;;;;;5068742;28;20082;-49
2022/03/23 01:04:21;;;;;;;69.13;34.47;;;3.10;99.90;;;;;;5068594;28;20459;-52
2022/03/23 01:06:47;;;;;;;64.25;31.95;;;3.10;99.90;;;;;;5068373;28;20044;-48
2022/03/23 01:09:13;;;;;;;65.03;34.55;;;3.10;99.90;;;;;;5068960;28;20049;-49
2022/03/23 01:11:39;;;;;;;89.15;43.88;;;3.00;99.90;;;;;;5068414;28;20068;-51
2022/03/23 01:14:06;;;;;;;94.78;44.10;;;3.00;99.90;;;;;;5069146;28;20041;-51
2022/03/23 01:16:33;;;;;;;105.80;45.75;;;3.00;99.90;;;;;;5068381;28;20091;-51
2022/03/23 01:18:59;;;;;;;91.20;42.08;;;3.00;99.90;;;;;;5068337;28;20044;-51
2022/03/23 01:21:25;;;;;;;88.72;41.95;;;3.00;99.90;;;;;;5068151;28;20056;-47
2022/03/23 01:23:51;;;;;;;82.15;42.42;;;2.90;99.90;;;;;;5068291;28;20438;-51
2022/03/23 01:26:17;;;;;;;97.18;46.55;;;3.00;99.90;;;;;;5068034;28;20695;-47
2022/03/23 01:28:43;;;;;;;87.03;41.58;;;3.00;99.90;;;;;;5068495;28;20040;-52
2022/03/23 01:31:10;;;;;;;85.70;40.80;;;2.90;99.90;;;;;;5068590;28;20119;-49
2022/03/23 01:33:36;;;;;;;98.68;44.55;;;2.90;99.90;;;;;;5067746;28;20045;-50
2022/03/23 01:36:02;;;;;;;80.70;39.33;;;2.90;99.90;;;;;;5068175;28;20041;-48
2022/03/23 01:38:28;;;;;;;85.68;39.92;;;2.90;99.90;;;;;;5068688;28;20040;-48
2022/03/23 01:40:54;;;;;;;87.57;38.70;;;2.90;99.90;;;;;;5068596;28;20121;-47
2022/03/23 01:43:21;;;;;;;97.95;45.97;;;2.80;99.90;;;;;;5068312;28;20048;-49
2022/03/23 01:45:46;;;;;;;74.70;31.88;;;2.80;99.90;;;;;;5069626;28;20040;-48
2022/03/23 01:48:12;;;;;;;90.45;38.58;;;2.80;99.90;;;;;;5072270;28;20097;-48
2022/03/23 01:50:38;;;;;;;74.05;37.38;;;2.70;99.90;;;;;;5070563;28;20048;-51
2022/03/23 01:53:03;;;;;;;77.15;32.72;;;2.70;99.90;;;;;;5072854;28;20094;-47
2022/03/23 01:55:29;;;;;;;69.90;32.08;;;2.70;99.90;;;;;;5072483;28;20510;-52
2022/03/23 01:57:55;;;;;;;55.00;29.30;;;2.60;99.90;;;;;;5071926;28;20040;-51
2022/03/23 02:00:21;;;;;;;62.80;31.02;;;2.60;99.90;;;;;;5072628;28;20076;-47
2022/03/23 02:02:47;;;;;;;68.85;31.58;;;2.50;99.90;;;;;;5072228;28;20461;-52
2022/03/23 02:05:14;;;;;;;100.95;43.10;;;2.50;99.90;;;;;;5070757;28;20052;-49
2022/03/23 02:07:39;;;;;;;75.68;35.30;;;2.40;99.90;;;;;;5072237;28;20044;-50
2022/03/23 02:10:06;;;;;;;96.97;46.53;;;2.40;99.90;;;;;;5072341;28;20096;-49
2022/03/23 02:12:32;;;;;;;93.80;42.38;;;2.40;99.90;;;;;;5071985;28;20044;-48
2022/03/23 02:15:00;;;;;;;96.53;42.13;;;2.40;99.90;;;;;;5071883;28;20047;-52
2022/03/23 02:17:26;;;;;;;98.18;42.72;;;2.30;99.90;;;;;;5071762;28;20040;-48
2022/03/23 02:19:52;;;;;;;106.18;46.08;;;2.30;99.90;;;;;;5071903;28;20044;-52
2022/03/23 02:22:18;;;;;;;100.20;43.58;;;2.30;99.90;;;;;;5072144;28;20044;-49
2022/03/23 02:24:46;;;;;;;101.85;47.85;;;2.30;99.90;;;;;;5071947;28;20162;-50
2022/03/23 02:27:12;;;;;;;87.25;38.85;;;2.20;99.90;;;;;;5072054;28;20040;-48
2022/03/23 02:29:38;;;;;;;80.93;36.55;;;2.40;99.90;;;;;;5071825;28;20059;-49
2022/03/23 02:32:05;;;;;;;81.55;38.25;;;2.20;99.90;;;;;;5071807;28;20969;-48
2022/03/23 02:34:31;;;;;;;88.05;39.13;;;2.20;99.90;;;;;;5071807;28;20037;-51
2022/03/23 02:36:58;;;;;;;68.28;32.85;;;2.10;99.90;;;;;;5071429;28;20045;-51
2022/03/23 02:39:25;;;;;;;80.95;36.13;;;2.10;99.90;;;;;;5071853;28;20047;-50
2022/03/23 02:41:53;;;;;;;63.00;31.08;;;2.10;99.90;;;;;;5071324;28;20036;-50
2022/03/23 02:44:19;;;;;;;88.60;36.88;;;2.00;99.90;;;;;;5071732;28;20048;-48
2022/03/23 02:46:46;;;;;;;74.57;35.05;;;2.00;99.90;;;;;;5071584;28;20037;-48
2022/03/23 02:49:15;;;;;;;44.95;23.63;;;2.00;99.90;;;;;;5071378;28;20137;-51
2022/03/23 02:51:41;;;;;;;27.83;18.10;;;2.00;99.90;;;;;;5070931;28;20812;-52
2022/03/23 03:02:36;;;;;;;30.73;19.10;;;1.80;99.90;;;;;;5070144;28;20506;-49
2022/03/23 03:05:04;;;;;;;35.28;21.52;;;1.90;99.90;;;;;;5070293;28;20032;-48
2022/03/23 03:08:44;;;;;;;30.08;19.08;;;1.80;99.90;;;;;;5070464;28;20397;-49
2022/03/23 03:10:15;;;;;;;25.10;17.00;;;1.80;99.90;;;;;;5070024;28;20049;-47
2022/03/23 03:12:43;;;;;;;20.35;16.45;;;1.70;99.90;;;;;;5070628;28;20086;-47
2022/03/23 03:15:12;;;;;;;22.60;15.73;;;1.80;99.90;;;;;;5070725;28;20036;-47
2022/03/23 03:17:38;;;;;;;23.95;17.05;;;1.70;99.90;;;;;;5070916;28;20047;-50
2022/03/23 03:20:04;;;;;;;30.80;18.73;;;1.60;99.90;;;;;;5070644;28;20044;-48
2022/03/23 03:22:40;;;;;;;25.40;17.25;;;1.60;99.90;;;;;;5070977;28;20044;-52
2022/03/23 03:25:13;;;;;;;34.58;19.88;;;1.50;99.90;;;;;;5070434;28;20051;-51
2022/03/23 03:27:40;;;;;;;31.30;17.58;;;1.40;99.90;;;;;;5069700;28;20119;-47
2022/03/23 03:30:11;;;;;;;35.47;20.88;;;1.40;99.90;;;;;;5084703;28;20513;-51
2022/03/23 03:32:37;;;;;;;34.70;20.02;;;1.40;99.90;;;;;;5069942;28;20536;-49
2022/03/23 03:35:04;;;;;;;33.85;19.70;;;1.40;99.90;;;;;;5070601;28;20123;-51
2022/03/23 03:37:30;;;;;;;32.75;19.23;;;1.30;99.90;;;;;;5070433;28;20037;-47
2022/03/23 03:39:56;;;;;;;39.50;21.25;;;1.30;99.90;;;;;;5070392;28;20037;-50
2022/03/23 03:42:21;;;;;;;31.70;20.25;;;1.20;99.90;;;;;;5070375;28;20378;-48
2022/03/23 03:44:50;;;;;;;24.13;17.98;;;1.20;99.90;;;;;;5070072;28;20937;-49
2022/03/23 03:47:16;;;;;;;30.40;18.88;;;1.10;99.90;;;;;;5069612;28;20571;-47
2022/03/23 03:49:42;;;;;;;31.75;19.15;;;1.10;99.90;;;;;;5069219;28;20486;-51
2022/03/23 03:52:08;;;;;;;32.42;20.25;;;1.10;99.90;;;;;;5068841;28;20059;-50
2022/03/23 03:54:33;;;;;;;34.72;20.45;;;1.00;99.90;;;;;;5070062;28;20051;-48
2022/03/23 03:56:59;;;;;;;44.00;23.88;;;1.10;99.90;;;;;;5069853;28;20082;-49
2022/03/23 03:59:25;;;;;;;26.52;19.45;;;1.10;99.90;;;;;;5070049;28;20060;-49
2022/03/23 04:01:50;;;;;;;27.33;18.60;;;1.00;99.90;;;;;;5069508;28;20091;-51
2022/03/23 04:04:16;;;;;;;35.72;21.67;;;0.80;99.90;;;;;;5069627;28;20089;-52
2022/03/23 04:06:42;;;;;;;27.15;19.85;;;1.00;99.90;;;;;;5070029;28;20056;-48
2022/03/23 04:09:08;;;;;;;30.88;21.25;;;0.90;99.90;;;;;;5068828;28;20041;-49
2022/03/23 04:11:35;;;;;;;30.05;21.80;;;1.00;99.90;;;;;;5068306;28;20076;-49
2022/03/23 04:14:01;;;;;;;56.67;26.65;;;1.00;99.90;;;;;;5069524;28;20044;-48
2022/03/23 04:16:27;;;;;;;41.42;25.17;;;1.00;99.90;;;;;;5069884;28;20045;-51
2022/03/23 04:18:52;;;;;;;45.35;24.80;;;1.00;99.90;;;;;;5069496;28;20390;-48
2022/03/23 04:21:18;;;;;;;39.03;25.27;;;1.00;99.90;;;;;;5069776;28;20044;-51
2022/03/23 04:23:44;;;;;;;45.47;26.63;;;1.00;99.90;;;;;;5069709;28;20123;-48
2022/03/23 04:26:09;;;;;;;43.15;25.58;;;1.00;99.90;;;;;;5069295;28;20076;-48
2022/03/23 04:28:35;;;;;;;34.60;23.85;;;1.00;99.90;;;;;;5069558;28;20094;-52
2022/03/23 04:31:01;;;;;;;51.42;31.25;;;0.90;99.90;;;;;;5069476;28;20426;-47
2022/03/23 04:33:27;;;;;;;53.50;31.98;;;0.90;99.90;;;;;;5069237;28;20043;-51
2022/03/23 04:35:53;;;;;;;51.15;31.83;;;0.80;99.90;;;;;;5068841;28;20398;-51
2022/03/23 04:38:20;;;;;;;45.42;30.02;;;0.90;99.90;;;;;;5068407;28;20125;-47
2022/03/23 04:40:46;;;;;;;50.95;32.92;;;0.80;99.90;;;;;;5068261;28;20076;-50
2022/03/23 04:43:12;;;;;;;53.35;31.67;;;0.80;99.90;;;;;;5068818;28;20084;-48
2022/03/23 04:45:37;;;;;;;50.67;30.65;;;0.70;99.90;;;;;;5069160;28;20398;-50
2022/03/23 04:48:04;;;;;;;49.13;30.42;;;0.70;99.90;;;;;;5068974;28;20098;-51
2022/03/23 04:50:30;;;;;;;56.63;31.92;;;0.60;99.90;;;;;;5068632;28;20532;-47
2022/03/23 04:52:56;;;;;;;39.67;25.65;;;0.70;99.90;;;;;;5068186;28;20040;-49
2022/03/23 04:55:22;;;;;;;42.63;27.10;;;0.60;99.90;;;;;;5068203;28;20473;-48
2022/03/23 04:57:48;;;;;;;59.50;28.85;;;0.60;99.90;;;;;;5068874;28;20036;-52
2022/03/23 05:00:16;;;;;;;52.75;29.30;;;0.60;99.90;;;;;;5069098;28;20406;-49
2022/03/23 05:02:43;;;;;;;45.70;27.40;;;0.60;99.90;;;;;;5069388;28;20177;-51
2022/03/23 05:05:13;;;;;;;43.50;25.23;;;0.50;99.90;;;;;;5068792;28;20752;-47
2022/03/23 05:07:40;;;;;;;43.35;22.45;;;0.60;99.90;;;;;;5068901;28;20036;-50
2022/03/23 05:10:08;;;;;;;40.88;22.13;;;-0.80;99.90;;;;;;5068621;28;20048;-50
2022/03/23 05:12:38;;;;;;;40.42;22.63;;;0.60;99.90;;;;;;5068551;28;20526;-47
2022/03/23 05:15:05;;;;;;;46.65;22.70;;;0.60;99.90;;;;;;5068885;28;20049;-48
2022/03/23 05:17:32;;;;;;;37.72;20.00;;;0.60;99.90;;;;;;5068755;28;20111;-47
2022/03/23 05:19:58;;;;;;;59.42;25.58;;;0.50;99.90;;;;;;5067944;28;20057;-51
2022/03/23 05:22:24;;;;;;;67.85;26.92;;;0.50;99.90;;;;;;5067639;28;20097;-47
2022/03/23 05:24:50;;;;;;;53.15;24.80;;;0.50;99.90;;;;;;5068410;28;20087;-51
2022/03/23 05:27:16;;;;;;;49.22;25.00;;;0.70;99.90;;;;;;5068902;28;20072;-51
2022/03/23 05:29:43;;;;;;;48.13;25.63;;;0.40;99.90;;;;;;5068577;28;20044;-47
2022/03/23 05:32:16;;;;;;;54.47;27.63;;;0.50;99.90;;;;;;5068440;28;20044;-51
2022/03/23 05:34:46;;;;;;;49.50;24.83;;;0.40;99.90;;;;;;5066910;28;20048;-51
2022/03/23 05:37:12;;;;;;;65.95;31.83;;;0.50;99.90;;;;;;5068408;28;20048;-52
2022/03/23 05:39:38;;;;;;;58.38;32.58;;;0.50;99.90;;;;;;5068481;28;20120;-47
2022/03/23 05:42:05;;;;;;;54.70;30.67;;;0.60;99.90;;;;;;5068395;28;20047;-51
2022/03/23 05:44:31;;;;;;;64.65;32.72;;;0.70;99.90;;;;;;5068302;28;20462;-50
2022/03/23 05:46:57;;;;;;;50.38;29.45;;;0.80;99.90;;;;;;5068835;28;20397;-49
2022/03/23 05:49:23;;;;;;;46.13;28.83;;;1.00;99.90;;;;;;5068268;28;20036;-48
2022/03/23 05:51:49;;;;;;;34.90;24.30;;;1.20;99.90;;;;;;5068198;28;20497;-49
2022/03/23 05:54:14;;;;;;;41.25;27.73;;;1.50;99.90;;;;;;5068001;28;20398;-50
2022/03/23 05:56:40;;;;;;;39.60;26.63;;;1.50;99.90;;;;;;5066792;28;20113;-48
2022/03/23 05:59:06;;;;;;;41.53;25.75;;;1.90;99.90;;;;;;5067978;28;20143;-51
2022/03/23 06:01:32;;;;;;;48.17;27.15;;;2.20;99.90;;;;;;5067059;28;20086;-49
2022/03/23 06:03:58;;;;;;;61.55;29.58;;;2.60;99.90;;;;;;5068276;28;20044;-50
2022/03/23 06:06:24;;;;;;;83.03;33.50;;;2.70;99.90;;;;;;5068674;28;20131;-48
2022/03/23 06:08:49;;;;;;;53.08;29.33;;;3.00;99.90;;;;;;5068508;28;20112;-47
2022/03/23 06:11:15;;;;;;;45.22;26.05;;;3.40;99.90;;;;;;5068322;28;20103;-48
2022/03/23 06:13:41;;;;;;;41.85;26.42;;;3.80;99.90;;;;;;5068434;28;20132;-50
2022/03/23 06:16:08;;;;;;;48.58;25.88;;;4.20;99.90;;;;;;5068235;28;20051;-50
2022/03/23 06:18:35;;;;;;;33.17;22.73;;;4.60;99.90;;;;;;5068095;28;20047;-49
2022/03/23 06:21:01;;;;;;;32.97;21.48;;;4.90;99.90;;;;;;5068130;28;20048;-47
2022/03/23 06:23:27;;;;;;;33.15;23.60;;;5.20;99.90;;;;;;5067269;28;20181;-51
2022/03/23 06:25:52;;;;;;;34.97;23.05;;;5.10;99.90;;;;;;5066894;28;20044;-49
2022/03/23 06:28:18;;;;;;;29.05;22.48;;;5.30;99.90;;;;;;5066854;28;20044;-47
2022/03/23 06:30:44;;;;;;;30.60;21.85;;;5.30;99.90;;;;;;5067066;28;20150;-48
2022/03/23 06:33:09;;;;;;;26.48;19.63;;;5.40;99.90;;;;;;5070978;28;20119;-51
2022/03/23 06:35:36;;;;;;;22.73;19.05;;;5.50;99.90;;;;;;5071569;28;20170;-49
2022/03/23 06:38:02;;;;;;;24.20;18.73;;;5.70;99.90;;;;;;5071895;28;20040;-49
2022/03/23 06:40:27;;;;;;;25.02;19.20;;;6.20;99.90;;;;;;5069981;28;20052;-46
2022/03/23 06:42:53;;;;;;;20.95;17.30;;;5.40;99.90;;;;;;5071547;28;20394;-48
2022/03/23 06:45:19;;;;;;;23.35;17.75;;;5.30;99.90;;;;;;5070491;28;20474;-48
2022/03/23 06:47:45;;;;;;;20.92;17.45;;;5.60;99.90;;;;;;5070801;28;20037;-48
2022/03/23 06:50:11;;;;;;;19.60;16.50;;;5.40;99.90;;;;;;5070479;28;20501;-51
2022/03/23 06:52:37;;;;;;;23.20;18.92;;;5.50;99.90;;;;;;5071091;28;20052;-49
2022/03/23 06:55:03;;;;;;;23.17;18.42;;;5.50;99.90;;;;;;5071203;28;20123;-50
2022/03/23 06:57:29;;;;;;;29.95;21.83;;;5.70;99.90;;;;;;5071743;28;20714;-49
2022/03/23 06:59:55;;;;;;;37.42;26.25;;;5.90;99.90;;;;;;5071422;28;20044;-47
2022/03/23 07:02:20;;;;;;;51.90;31.65;;;6.20;99.90;;;;;;5070761;28;20032;-48
2022/03/23 07:04:46;;;;;;;41.75;28.88;;;6.50;99.90;;;;;;5070190;28;20037;-47
2022/03/23 07:07:12;;;;;;;41.83;27.35;;;6.90;99.90;;;;;;5070111;28;20036;-48
2022/03/23 07:09:41;;;;;;;39.28;28.33;;;7.30;99.90;;;;;;5070759;28;20554;-48
2022/03/23 07:12:11;;;;;;;41.63;29.33;;;7.50;99.90;;;;;;5085838;28;20403;-51
2022/03/23 07:14:38;;;;;;;41.13;28.13;;;7.80;99.90;;;;;;5070889;28;20467;-49
2022/03/23 07:17:06;;;;;;;42.28;29.50;;;8.20;99.90;;;;;;5070809;28;20041;-48
2022/03/23 07:19:32;;;;;;;50.17;30.40;;;8.60;99.90;;;;;;5070307;28;20471;-52
2022/03/23 07:21:57;;;;;;;44.10;28.67;;;9.60;99.90;;;;;;5070598;28;20059;-49
2022/03/23 07:24:24;;;;;;;44.72;29.48;;;9.20;99.90;;;;;;5070395;28;20036;-48
2022/03/23 07:26:49;;;;;;;46.90;31.35;;;8.90;99.90;;;;;;5070852;28;20053;-50
2022/03/23 07:29:15;;;;;;;48.47;32.20;;;9.30;99.90;;;;;;5086240;28;20051;-49
2022/03/23 07:31:42;;;;;;;46.72;32.55;;;9.50;99.90;;;;;;5070650;28;20123;-48
2022/03/23 07:34:07;;;;;;;46.15;32.05;;;10.10;99.90;;;;;;5070333;28;20044;-49
2022/03/23 07:36:33;;;;;;;46.90;30.27;;;9.80;99.90;;;;;;5070227;28;20040;-49
2022/03/23 07:38:59;;;;;;;42.63;28.30;;;10.50;99.90;;;;;;5070550;28;20041;-50
2022/03/23 07:41:25;;;;;;;46.45;29.75;;;10.20;99.90;;;;;;5070093;28;20495;-48
2022/03/23 07:43:51;;;;;;;47.22;30.10;;;10.20;99.90;;;;;;5069029;28;20049;-48
2022/03/23 07:46:17;;;;;;;43.25;30.85;;;10.40;99.90;;;;;;5070093;28;20064;-51
2022/03/23 07:48:43;;;;;;;43.72;29.67;;;10.60;99.90;;;;;;5070416;28;20040;-49
2022/03/23 07:51:09;;;;;;;53.17;30.40;;;10.70;99.90;;;;;;5069863;28;20501;-50
2022/03/23 07:53:35;;;;;;;45.88;29.27;;;10.80;99.90;;;;;;5070200;28;20102;-52
2022/03/23 07:56:01;;;;;;;43.88;29.35;;;10.70;99.90;;;;;;5069949;28;20051;-48
2022/03/23 07:58:28;;;;;;;38.00;28.52;;;11.00;99.90;;;;;;5069131;28;20040;-52
2022/03/23 08:00:54;;;;;;;41.10;27.20;;;11.00;99.90;;;;;;5068973;28;20127;-47
2022/03/23 08:03:20;;;;;;;40.28;25.27;;;11.10;99.90;;;;;;5068778;28;20071;-50
2022/03/23 08:05:47;;;;;;;37.05;26.42;;;11.20;99.90;;;;;;5069001;28;20474;-48
2022/03/23 08:08:13;;;;;;;41.97;28.42;;;11.30;99.90;;;;;;5069984;28;20061;-48
2022/03/23 08:10:43;;;;;;;34.35;24.90;;;11.80;99.90;;;;;;5069557;28;20052;-49
2022/03/23 08:13:09;;;;;;;41.85;24.77;;;12.20;99.90;;;;;;5069320;28;20123;-50
2022/03/23 08:15:36;;;;;;;44.80;25.70;;;12.30;99.90;;;;;;5069324;28;20040;-49
2022/03/23 08:18:02;;;;;;;38.00;25.05;;;12.60;99.90;;;;;;5070042;28;20058;-51
2022/03/23 08:20:37;;;;;;;35.05;25.10;;;13.00;99.90;;;;;;5069765;28;20045;-50
2022/03/23 08:23:08;;;;;;;35.97;24.13;;;13.40;99.80;;;;;;5069464;28;20471;-49
2022/03/23 08:25:38;;;;;;;38.75;24.30;;;13.90;96.80;;;;;;5069196;28;20505;-51
2022/03/23 08:28:05;;;;;;;35.05;24.00;;;14.30;96.60;;;;;;5069191;28;20049;-50
2022/03/23 08:30:31;;;;;;;36.67;24.20;;;14.60;95.30;;;;;;5083452;28;20075;-52
2022/03/23 08:32:57;;;;;;;37.17;23.50;;;15.00;94.00;;;;;;5068639;28;20487;-49
2022/03/23 08:35:24;;;;;;;34.08;22.27;;;15.50;92.80;;;;;;5068448;28;20768;-50
2022/03/23 08:37:50;;;;;;;35.92;22.77;;;15.90;91.00;;;;;;5068661;28;20478;-50
2022/03/23 08:40:16;;;;;;;29.90;19.73;;;16.10;89.20;;;;;;5068937;28;20045;-49
2022/03/23 08:42:43;;;;;;;27.70;19.52;;;16.30;85.70;;;;;;5069095;28;20048;-50
2022/03/23 08:45:09;;;;;;;27.02;19.42;;;15.60;81.90;;;;;;5068752;28;20098;-52
2022/03/23 08:47:38;;;;;;;24.80;17.42;;;18.20;79.10;;;;;;5069011;28;20071;-51
2022/03/23 08:50:07;;;;;;;26.80;17.23;;;18.90;75.50;;;;;;5067736;28;20487;-50
2022/03/23 08:52:34;;;;;;;23.05;17.40;;;19.80;71.70;;;;;;5068235;28;20109;-53
2022/03/23 08:55:01;;;;;;;21.33;16.77;;;21.00;67.90;;;;;;5066537;28;20052;-53
2022/03/23 08:57:27;;;;;;;24.02;18.02;;;21.60;64.00;;;;;;5068241;28;20066;-49
2022/03/23 08:59:52;;;;;;;21.10;16.38;;;21.80;63.50;;;;;;5067631;28;20660;-50
2022/03/23 09:02:18;;;;;;;18.85;15.32;;;22.30;62.00;;;;;;5050243;28;20079;-53
2022/03/23 09:04:44;;;;;;;20.83;16.08;;;23.50;59.90;;;;;;5068580;28;20089;-53
2022/03/23 09:07:09;;;;;;;18.25;14.30;;;24.40;56.50;;;;;;5068689;28;20040;-53
2022/03/23 09:09:35;;;;;;;20.02;15.07;;;25.00;53.30;;;;;;5068512;28;20052;-54
2022/03/23 09:12:01;;;;;;;21.75;16.05;;;25.30;50.40;;;;;;5084168;28;20040;-51
2022/03/23 09:14:27;;;;;;;19.35;15.27;;;25.70;49.10;;;;;;5068338;28;20045;-53
2022/03/23 09:16:52;;;;;;;19.80;14.18;;;26.10;47.40;;;;;;5068382;28;20055;-53
2022/03/23 09:19:20;;;;;;;17.95;14.60;;;26.40;45.80;;;;;;5068620;28;20375;-54
2022/03/23 09:21:50;;;;;;;19.58;16.15;;;26.70;44.90;;;;;;5068213;28;20049;-53
2022/03/23 09:24:16;;;;;;;16.55;14.45;;;27.00;44.10;;;;;;5067103;28;20101;-53
2022/03/23 09:26:42;;;;;;;19.67;14.68;;;27.40;44.50;;;;;;5068014;28;20040;-53
2022/03/23 09:29:08;;;;;;;21.27;15.02;;;27.10;43.70;;;;;;5068624;28;20432;-54
2022/03/23 09:31:34;;;;;;;17.20;13.77;;;26.80;42.40;;;;;;5068296;28;20106;-53
2022/03/23 09:34:02;;;;;;;14.93;13.40;;;27.00;41.90;;;;;;5068115;28;20102;-55
2022/03/23 09:39:16;;;;;;;16.58;13.38;;;27.30;40.40;;;;;;5068323;28;20041;-54
2022/03/23 09:41:44;;;;;;;18.67;14.80;;;27.00;40.90;;;;;;5068296;28;20490;-54
2022/03/23 09:44:10;;;;;;;16.38;14.10;;;26.90;40.50;;;;;;5067123;28;20052;-54
2022/03/23 09:46:36;;;;;;;22.30;14.23;;;26.50;40.40;;;;;;5068480;28;20047;-54
2022/03/23 09:49:02;;;;;;;19.35;13.57;;;26.20;40.70;;;;;;5067488;28;20045;-54
2022/03/23 09:51:32;;;;;;;17.35;13.85;;;26.10;40.60;;;;;;5080001;28;20048;-52
2022/03/23 09:53:59;;;;;;;15.50;12.43;;;26.00;38.80;;;;;;5088513;28;20044;-54
2022/03/23 09:56:24;;;;;;;16.60;13.30;;;25.70;38.90;;;;;;5089116;28;20429;-54
2022/03/23 09:58:51;;;;;;;18.80;13.85;;;25.50;37.30;;;;;;5088631;28;20036;-54
2022/03/23 10:01:28;;;;;;;15.05;12.98;;;25.20;38.00;;;;;;5088206;28;20047;-54
2022/03/23 10:04:12;;;;;;;13.88;12.52;;;24.80;38.60;;;;;;5088116;28;20051;-53
2022/03/23 10:06:48;;;;;;;16.80;13.30;;;24.90;40.50;;;;;;5088938;28;20048;-54
2022/03/23 10:09:49;;;;;;;16.15;13.82;;;25.60;39.70;;;;;;5092359;28;20122;-54
2022/03/23 10:12:36;;;;;;;14.75;13.02;;;26.10;39.30;;;;;;5063374;28;20083;-54
2022/03/23 10:15:39;;;;;;;14.77;12.73;;;27.30;40.10;;;;;;5092458;28;20089;-54
2022/03/23 10:18:07;;;;;;;15.10;13.50;;;26.80;39.20;;;;;;5092133;28;20051;-53
2022/03/23 10:20:33;;;;;;;14.93;12.57;;;27.40;38.80;;;;;;5092134;28;20585;-54
2022/03/23 10:22:58;;;;;;;17.08;12.52;;;27.70;38.70;;;;;;5091637;28;20040;-53
2022/03/23 10:25:28;;;;;;;14.50;12.23;;;28.00;37.80;;;;;;5092120;28;20055;-54
2022/03/23 10:27:55;;;;;;;13.18;11.75;;;28.20;36.50;;;;;;5091744;28;20050;-54
2022/03/23 10:30:42;;;;;;;14.15;12.13;;;28.20;35.30;;;;;;5091810;28;20044;-54
2022/03/23 10:33:19;;;;;;;15.13;11.98;;;28.00;36.20;;;;;;5073158;28;20409;-54
2022/03/23 10:35:45;;;;;;;15.07;11.50;;;27.70;35.80;;;;;;5090778;28;20429;-54
2022/03/23 10:38:16;;;;;;;15.25;12.02;;;27.60;36.10;;;;;;5088614;28;20050;-46
2022/03/23 10:40:44;;;;;;;14.25;11.35;;;27.80;35.50;;;;;;5088077;28;20143;-42
2022/03/23 10:43:11;;;;;;;15.90;13.38;;;27.90;35.10;;;;;;5089080;28;20056;-45
2022/03/23 10:45:38;;;;;;;16.58;12.15;;;27.80;34.10;;;;;;5090422;28;20052;-47
2022/03/23 10:48:22;;;;;;;15.57;12.77;;;27.50;34.10;;;;;;5090706;28;20121;-44
2022/03/23 10:50:52;;;;;;;19.63;12.20;;;27.00;33.10;;;;;;5090720;28;20512;-44
2022/03/23 10:53:56;;;;;;;16.77;11.30;;;25.50;33.60;;;;;;5091633;28;20044;-43
2022/03/23 10:56:34;;;;;;;15.80;11.35;;;23.80;34.50;;;;;;5045045;28;20055;-45
2022/03/23 10:59:22;;;;;;;17.58;11.38;;;22.20;35.60;;;;;;5090755;28;20050;-45
2022/03/23 11:02:13;;;;;;;16.95;13.70;;;21.20;36.80;;;;;;5091265;28;20118;-43
2022/03/23 11:04:54;;;;;;;17.70;10.30;;;20.40;38.00;;;;;;5091686;28;20083;-45
2022/03/23 11:07:31;;;;;;;22.15;12.32;;;19.60;37.50;;;;;;5091282;28;20052;-44
2022/03/23 11:16:00;;;;;;;15.85;10.23;;;18.50;42.00;;;;;;5090961;28;20093;-43
2022/03/23 11:18:26;;;;;;;13.70;9.50;;;18.30;42.20;;;;;;5090881;28;20127;-44
2022/03/23 11:20:56;;;;;;;15.05;10.55;;;18.20;41.60;;;;;;5090698;28;20130;-46
2022/03/23 11:23:25;;;;;;;20.17;10.60;;;18.10;41.10;;;;;;5090877;28;20044;-44
2022/03/23 11:26:08;;;;;;;20.23;10.45;;;17.90;41.40;;;;;;5090715;28;20087;-43
2022/03/23 11:28:37;;;;;;;17.40;12.20;;;17.80;41.80;;;;;;5090650;28;20078;-43
2022/03/23 11:31:06;;;;;;;17.27;11.50;;;17.70;43.00;;;;;;5090510;28;20141;-43
2022/03/23 11:33:38;;;;;;;19.10;11.43;;;17.60;42.20;;;;;;5091066;28;20036;-44
2022/03/23 11:36:08;;;;;;;19.83;10.95;;;17.70;43.20;;;;;;5072374;28;20047;-41
2022/03/23 11:38:33;;;;;;;15.35;10.68;;;17.60;42.50;;;;;;5090772;28;20636;-44
2022/03/23 11:41:00;;;;;;;19.83;10.05;;;17.50;43.00;;;;;;5090584;28;20161;-53
2022/03/23 11:43:33;;;;;;;18.60;10.63;;;17.50;43.00;;;;;;5090598;28;20063;-54
2022/03/23 11:46:00;;;;;;;16.75;11.00;;;17.50;42.60;;;;;;5090940;28;20048;-52
2022/03/23 11:48:35;;;;;;;14.85;9.40;;;17.40;42.70;;;;;;5090615;28;20039;-51
2022/03/23 11:51:22;;;;;;;16.50;9.68;;;17.40;43.20;;;;;;5089812;28;20052;-44
2022/03/23 11:54:18;;;;;;;16.77;8.43;;;17.40;43.10;;;;;;5090451;28;20044;-44
2022/03/23 11:57:12;;;;;;;19.95;9.35;;;17.50;42.50;;;;;;5090290;28;20040;-50
2022/03/23 11:59:38;;;;;;;16.35;8.32;;;17.40;42.60;;;;;;5089879;28;20066;-47
2022/03/23 12:02:08;;;;;;;21.17;7.97;;;17.40;42.40;;;;;;5089717;28;20044;-51
2022/03/23 12:04:33;;;;;;;17.08;7.57;;;17.40;42.70;;;;;;5090246;28;20036;-51
2022/03/23 12:07:08;;;;;;;16.98;9.48;;;17.40;43.00;;;;;;5089765;28;20105;-49
2022/03/23 12:09:34;;;;;;;15.20;8.75;;;17.40;42.70;;;;;;5090041;28;20155;-43
2022/03/23 12:12:05;;;;;;;17.85;8.20;;;17.40;43.50;;;;;;5089189;28;20070;-45
2022/03/23 12:14:35;;;;;;;16.13;9.75;;;17.40;43.20;;;;;;5071462;28;20113;-47
2022/03/23 12:17:10;;;;;;;15.07;7.70;;;17.40;43.70;;;;;;5089565;28;20036;-43
2022/03/23 12:20:03;;;;;;;14.75;8.27;;;17.40;42.90;;;;;;5071466;28;20040;-43
2022/03/23 12:22:34;;;;;;;14.05;6.35;;;17.50;44.10;;;;;;5089539;28;20043;-43
2022/03/23 12:25:09;;;;;;;19.75;7.85;;;17.50;43.40;;;;;;5090158;28;20378;-44
2022/03/23 12:28:02;;;;;;;26.50;6.25;;;17.50;43.90;;;;;;5089833;28;20077;-44
2022/03/23 12:30:27;;;;;;;21.38;8.07;;;17.60;43.00;;;;;;5089004;28;20051;-42
2022/03/23 12:32:57;;;;;;;22.10;6.50;;;17.50;43.10;;;;;;5089198;28;20398;-49
2022/03/23 12:35:31;;;;;;;15.80;8.05;;;17.50;43.60;;;;;;5089241;28;20119;-45
2022/03/23 12:38:02;;;;;;;15.70;7.15;;;17.60;44.10;;;;;;5088881;28;20229;-46
2022/03/23 12:40:42;;;;;;;23.13;7.63;;;17.60;43.40;;;;;;5089630;28;20083;-43
2022/03/23 12:43:08;;;;;;;22.02;7.25;;;17.50;43.60;;;;;;5089221;28;20398;-44
2022/03/23 12:45:39;;;;;;;21.13;6.13;;;17.50;44.00;;;;;;5089337;28;20036;-43
2022/03/23 12:57:49;;;;;;;12.57;6.22;;;17.50;43.80;;;;;;5088951;28;20044;-46
2022/03/23 12:59:37;;;;;;;16.50;7.18;;;17.60;44.50;;;;;;5089027;28;20105;-50
2022/03/23 13:02:21;;;;;;;13.77;5.57;;;17.60;44.40;;;;;;5089082;28;20044;-48
2022/03/23 13:04:47;;;;;;;17.00;7.35;;;17.60;44.10;;;;;;5088867;28;20748;-44